TAF CYKF 230740Z 2308/2320 34008KT P6SM SCT040
BECMG 2314/2316 33012KT RMK FCST BASED ON AUTO OBS. NXT FCST BY 231400Z
From batch tds/tafs/production/2022/9/23/h07_m59_tafs.cache.xml
Issued (9 days ago)
Forecasts
2308/2314 34008KT P6SM SCT4000

---
fcst_time_to: '2022-09-23T14:00:00Z'
sky_condition:
- sky_cover: SCT
  cloud_base_ft_agl: '4000'
wind_speed_kt: '8'
fcst_time_from: '2022-09-23T08:00:00Z'
wind_dir_degrees: '340'
visibility_statute_mi: '6.21'

BECMG 2316/2320 33012KT P6SM SCT4000

---
fcst_time_to: '2022-09-23T20:00:00Z'
sky_condition:
- sky_cover: SCT
  cloud_base_ft_agl: '4000'
time_becoming: '2022-09-23T16:00:00Z'
wind_speed_kt: '12'
fcst_time_from: '2022-09-23T14:00:00Z'
change_indicator: BECMG
wind_dir_degrees: '330'
visibility_statute_mi: '6.21'

talk